Knob Noster, Missouri
Current Conditions -  °F | °C
As of 11:58 PM on Tuesday 25 Nov 2014 (Local Time) from KSZL Reporting Station
Scattered Clouds Scattered Clouds  
Wind Chill: 26°   Ceiling: Unl
Heat Index: 33°   Visibility: 10mi
Dew Point: 22°   Wind: 8mph
Humidity: 64%   Direction: 170°S
Pressure: 30.05"   Gusts: NA
Location:  38.77°N, 93.56°W
Report Text: KSZL 260558Z 17007KT 10SM SCT130 01/M06 A3005 RMK AO2A SLP186 T00061056 10008 21011 57016 $
Loading
Personal Weather Stations






























Interactive Weather Map New forecast layout! Learn more

10-Day Weather Forecast

Advertisements
Track Severe Weather on mobile